ADDS METAR Data INFO
IDs: Format: Raw Decoded Include TAF

Data at: 2256 UTC 22 Jun 2018

KMIE 222253Z 14004KT 10SM BKN100 25/18 A2965 RMK AO2 SLP030 T02500178
KMIE 222153Z 17008KT 10SM SCT110 25/17 A2967 RMK AO2 SLP035 T02500172
KMIE 222053Z 17010KT 10SM CLR 26/17 A2967 RMK AO2 LTG DSNT N AND NW SLP035 T02610167 58009
KMIE 221953Z 18007KT 10SM SCT070 26/18 A2968 RMK AO2 SLP041 T02560183
KMIE 221853Z 22007KT 190V250 10SM SCT040 27/18 A2968 RMK AO2 SLP039 T02720183
KMIE 221753Z 24008KT 10SM FEW032 27/18 A2969 RMK AO2 SLP043 T02720183 10272 20222 58007
KMIE 221653Z 21008KT 10SM FEW026 FEW070 26/19 A2971 RMK AO2 SLP050 T02560189
KMIE 221553Z 21011KT 10SM SCT021 BKN034 24/19 A2972 RMK AO2 LTG DSNT NE SLP052 T02440194
KMIE 221453Z 22007KT 10SM SCT016 BKN031 24/19 A2972 RMK AO2 SLP052 T02440194 56002
KMIE 221451Z 19008KT 160V220 10SM SCT016 BKN031 24/19 A2972 RMK AO2
KMIE 221418Z 20006KT 10SM SCT016 BKN021 OVC070 24/19 A2972 RMK AO2 T02390194
KMIE 221353Z 17004KT 10SM FEW014 SCT018 BKN070 23/19 A2972 RMK AO2 SLP054 T02330194
KMIE 221340Z 17004KT 10SM FEW014 SCT023 BKN060 23/20 A2972 RMK AO2 T02330200
KMIE 221331Z 18004KT 10SM FEW007 SCT013 BKN023 23/20 A2972 RMK AO2 T02330200
KMIE 221323Z VRB03KT 10SM SCT007 BKN024 OVC039 23/21 A2973 RMK AO2 T02280206
KMIE 221253Z 14005KT 7SM BKN008 OVC016 22/20 A2972 RMK AO2 CIG 005V010 SLP055 T02220200
KMIE 221205Z 13003KT 6SM BR BKN008 BKN014 OVC027 22/21 A2972 RMK AO2 CIG 005V012 T02220206
KMIE 221153Z 13004KT 6SM BR SCT007 BKN013 OVC026 22/21 A2972 RMK AO2 SLP054 60001 70146 T02220206 10222 20211 50004
KMIE 221053Z 00000KT 3SM BR OVC005 22/20 A2972 RMK AO2 SLP055 T02170200
KMIE 221005Z 10008KT 3SM BR OVC002 21/20 A2970 RMK AO2 T02110200
KMIE 220953Z AUTO 11006KT 2SM BR OVC002 21/20 A2971 RMK AO2 SLP050 T02110200
KMIE 220853Z AUTO 09008KT 1 3/4SM BR OVC003 21/19 A2971 RMK AO2 SLP050 60001 T02110194 55003
KMIE 220844Z AUTO 09007KT 2SM BR OVC003 21/19 A2971 RMK AO2 T02110194
KMIE 220824Z AUTO 09006KT 5SM BR BKN004 OVC012 21/19 A2971 RMK AO2 CIG 002V007 T02110194
KMIE 220802Z AUTO 09006KT 9SM SCT006 OVC012 21/19 A2971 RMK AO2 T02110194
KMIE 220753Z AUTO 08007KT 9SM BKN006 OVC011 21/19 A2970 RMK AO2 CIG 004V009 SLP048 T02110194
KMIE 220653Z AUTO 08006KT 10SM BKN006 21/19 A2970 RMK AO2 RAE10 CIG 004V009 SLP048 P0001 T02110194
KMIE 220601Z AUTO 10008KT 7SM -RA BKN005 OVC010 21/19 A2972 RMK AO2 P0001 T02110194
KMIE 220553Z AUTO 09009KT 7SM -RA OVC004 21/20 A2972 RMK AO2 SLP053 P0005 60035 T02110200 10217 20211 58016
KMIE 220509Z AUTO 10012KT 5SM RA BR OVC004 21/20 A2973 RMK AO2 P0002 T02110200
KMIE 220453Z AUTO 10010KT 6SM -RA BR OVC005 21/20 A2973 RMK AO2 LTG DSNT SE RAB24 SLP058 P0002 T02110200 402330211
KMIE 220353Z AUTO 10010KT 10SM OVC006 22/20 A2976 RMK AO2 LTG DSNT S RAB11E24 SLP067 P0000 T02170200
KMIE 220319Z AUTO 10010KT 10SM -RA BKN008 OVC055 22/20 A2977 RMK AO2 LTG DSNT S AND SW RAB11 CIG 006V012 P0000 T02170200
KMIE 220309Z AUTO 11009KT 10SM BKN010 BKN017 OVC055 22/20 A2977 RMK AO2 LTG DSNT S CIG 007V012 T02170200
KMIE 220253Z AUTO 10010KT 10SM FEW008 BKN015 OVC055 22/20 A2976 RMK AO2 LTG DSNT SW SLP069 60028 T02170200 53005
KMIE 220240Z AUTO 09005KT 10SM FEW007 BKN015 OVC021 22/20 A2976 RMK AO2 LTG DSNT SW T02170200
KMIE 220222Z AUTO 10007KT 10SM SCT007 BKN013 OVC070 22/20 A2976 RMK AO2 T02170200
KMIE 220215Z AUTO 09007KT 10SM BKN008 BKN013 OVC070 22/20 A2975 RMK AO2 T02170200
KMIE 220206Z AUTO 08005KT 10SM SCT008 BKN070 OVC100 22/20 A2975 RMK AO2 T02170200
KMIE 220153Z 11007KT 10SM SCT070 OVC100 22/20 A2974 RMK AO2 RAB0054E10 SLP060 P0000 T02170200
KMIE 220140Z 11009KT 10SM FEW006 BKN100 22/20 A2973 RMK AO2 RAB0054E10 P0000 T02170200
KMIE 220053Z 09010KT 10SM BKN006 OVC100 21/20 A2973 RMK AO2 LTG DSNT S RAE49 CIG 005V009 SLP056 P0028 T02110200
KMIE 220045Z 10006KT 10SM -RA BKN006 OVC110 21/20 A2973 RMK AO2 CIG 004V025 P0028 T02110200
KMIE 220036Z 07007KT 8SM -RA SCT006 BKN070 OVC100 21/19 A2973 RMK AO2 P0028 T02110194
KMIE 220029Z 08013G17KT 5SM -RA BR FEW032 SCT070 OVC110 21/20 A2973 RMK AO2 P0028 T02110200
KMIE 220022Z 08009KT 2 1/2SM -RA BR FEW003 BKN075 OVC110 21/19 A2972 RMK AO2 P0027 T02110194
KMIE 220014Z 08015KT 1 1/2SM +RA BR FEW005 BKN026 OVC100 21/19 A2973 RMK AO2 P0025 T02110194
KMIE 220002Z 09012KT 1/2SM +RA FG SCT006 OVC018 21/19 A2974 RMK AO2 P0018 T02110194
KMIE 220000Z 08012KT 3/4SM +RA BR BKN006 OVC016 21/19 A2974 RMK AO2 P0014 T02110194
KMIE 212353Z 05010KT 1SM +RA BR BKN006 OVC012 21/19 A2975 RMK AO2 SLP064 P0018 60056 T02110194 10233 20211 55000
KMIE 212348Z 05007KT 1 3/4SM +RA BR BKN006 OVC012 21/19 A2976 RMK AO2 P0011
KMIE 212316Z 07007KT 3SM -RA BR OVC006 21/19 A2975 RMK AO2 P0004 T02110194
KMIE 212301Z 07007KT 1 3/4SM RA BR OVC006 22/20 A2975 RMK AO2 LTG DSNT SW P0002 T02170200
KMIE 212253Z 07009KT 2SM RA BR OVC006 22/20 A2975 RMK AO2 LTG DSNT SW RAB13 SLP064 P0004 T02170200
KMIE 212204Z 07011KT 8SM BKN006 OVC013 23/21 A2974 RMK AO2 LTG DSNT W T02280206
KMIE 212153Z 07011KT 7SM SCT006 OVC012 22/21 A2974 RMK AO2 LTG DSNT W RAE15 SLP061 P0000 T02220206
KMIE 212140Z 08007KT 7SM SCT007 OVC012 22/20 A2975 RMK AO2 RAE15 P0000 T02220200
KMIE 212114Z 07009KT 7SM -RA BKN007 OVC016 22/20 A2974 RMK AO2 P0000 T02220200
KMIE 212055Z 06010KT 10SM -RA FEW007 BKN015 OVC070 23/21 A2975 RMK AO2 P0000 T02280206
KMIE 212053Z 06008KT 10SM -RA BKN013 BKN026 OVC070 23/21 A2975 RMK AO2 SLP064 P0000 60034 T02330206 56005
KMIE 212020Z 06005KT 10SM -RA BKN011 BKN040 OVC049 23/21 A2975 RMK AO2 P0000 T02280206
KMIE 212000Z 07004KT 10SM -RA FEW007 BKN041 OVC050 23/21 A2976 RMK AO2 P0000 T02280206
KMIE 211953Z 07004KT 10SM -RA FEW007 BKN011 OVC049 23/21 A2976 RMK AO2 SLP067 P0006 T02280206
KMIE 211929Z 00000KT 5SM -RA BR BKN009 BKN070 OVC090 23/21 A2976 RMK AO2 P0005 T02280206
KMIE 211906Z 00000KT 5SM -RA BR SCT006 BKN042 OVC090 23/21 A2976 RMK AO2 P0002 T02280206
KMIE 211853Z 00000KT 4SM -RA BR SCT005 BKN008 OVC055 22/21 A2977 RMK AO2 SLP069 P0028 T02220206
KMIE 211850Z 00000KT 4SM RA BR SCT005 BKN008 OVC040 22/21 A2977 RMK AO2 P0028
KMIE 211843Z 00000KT 2 1/2SM RA BR BKN006 OVC040 22/21 A2977 RMK AO2 P0027 T02220206
KMIE 211836Z VRB03KT 2SM RA BR SCT006 BKN038 OVC047 22/21 A2977 RMK AO2 P0025 T02220206
KMIE 211828Z 00000KT 3/4SM +RA BR FEW008 BKN036 OVC047 22/21 A2977 RMK AO2 P0022 T02220206
KMIE 211814Z 22003KT 1 1/4SM +RA BR FEW008 SCT024 OVC040 23/21 A2977 RMK AO2 P0010 T02280206
KMIE 211808Z 22004KT 2 1/2SM RA BR FEW008 BKN024 OVC038 23/21 A2977 RMK AO2 P0005 T02280206
KMIE 211753Z 23003KT 3SM RA BR SCT008 BKN034 OVC043 23/21 A2978 RMK AO2 SLP072 P0030 60054 T02280211 10228 20217 58005
KMIE 211738Z 00000KT 5SM -RA BR FEW008 BKN031 OVC038 23/21 A2978 RMK AO2 P0028 T02280206
KMIE 211726Z 22003KT 5SM -RA BR FEW025 OVC033 22/21 A2978 RMK AO2 P0026 T02220206
KMIE 211719Z 24004KT 2SM -RA BR FEW007 BKN033 OVC040 22/21 A2978 RMK AO2 P0026 T02220206
KMIE 211713Z VRB05KT 3/4SM +RA BR FEW007 BKN026 OVC038 22/21 A2978 RMK AO2 P0025 T02220206
KMIE 211705Z 20007KT 1SM +RA BR SCT007 BKN026 OVC036 23/21 A2978 RMK AO2 P0013 T02280206
KMIE 211653Z 22005KT 1 1/4SM +RA BR SCT006 BKN013 OVC031 23/21 A2978 RMK AO2 SLP075 P0024 T02280206
KMIE 211650Z 22007KT 1 3/4SM RA BR SCT006 BKN013 OVC020 23/21 A2979 RMK AO2 P0021
KMIE 211645Z 19005KT 2SM -RA BR BKN008 BKN014 OVC020 23/21 A2979 RMK AO2 CIG 005V011 P0014 T02280211
KMIE 211624Z 12004KT 1 3/4SM -RA BR SCT005 BKN013 OVC020 23/21 A2979 RMK AO2 LTG DSNT NW P0008 T02280211
KMIE 211616Z 14003KT 2SM RA BR BKN005 BKN010 OVC018 23/21 A2979 RMK AO2 P0006 T02280211
KMIE 211604Z 14004KT 1 1/4SM RA BR OVC004 23/21 A2979 RMK AO2 P0003 T02280211
KMIE 211553Z 12007KT 2SM -RA BR OVC004 23/21 A2979 RMK AO2 RAB36 SLP076 P0000 T02280211
KMIE 211541Z 12008KT 1 3/4SM -RA BR OVC004 23/21 A2978 RMK AO2 RAB36 P0000 T02280211
KMIE 211453Z 11008KT 2 1/2SM BR OVC005 22/21 A2979 RMK AO2 SLP077 60000 T02220206 58007
KMIE 211353Z 10009KT 1 1/2SM BR OVC003 22/21 A2980 RMK AO2 RAB1255E16 SLP080 P0000 T02170206
KMIE 211253Z 10009KT 1 1/4SM BR OVC003 22/20 A2981 RMK AO2 SLP081 T02170200
KMIE 211153Z 10009KT 1 1/2SM BR OVC004 22/20 A2981 RMK AO2 SLP083 60008 70027 T02170200 10222 20211 50001
KMIE 211121Z 10008KT 1 3/4SM BR OVC004 22/20 A2982 RMK AO2 T02170200
KMIE 211100Z 10007KT 1 3/4SM BR OVC005 22/20 A2981 RMK AO2 T02170200